Time;durP1;ratioP1;P1;durP2;ratioP2;P2;SDS_P1;SDS_P2;PMS_P1;PMS_P2;Temp;Humidity;BMP_temperature;BMP_pressure;BME280_temperature;BME280_humidity;BME280_pressure;Samples;Min_cycle;Max_cycle;Signal;HPM_P1;HPM_P2
2022/08/13 00:00:14;;;;;;;9.57;6.80;;;;;;;21.83;84.21;94474.13;6304013;22;20172;-76
2022/08/13 00:02:43;;;;;;;7.88;7.05;;;;;;;21.76;83.84;94465.00;6304224;22;20168;-77
2022/08/13 00:05:13;;;;;;;7.65;6.40;;;;;;;21.77;83.65;94469.22;6303656;22;20560;-77
2022/08/13 00:07:43;;;;;;;8.80;6.32;;;;;;;21.79;83.34;94475.00;6304016;22;20240;-78
2022/08/13 00:10:18;;;;;;;9.20;6.63;;;;;;;21.75;83.78;94461.56;6303183;22;20166;-78
2022/08/13 00:12:57;;;;;;;7.40;6.25;;;;;;;21.79;83.53;94464.44;6303588;22;20156;-78
2022/08/13 00:15:30;;;;;;;7.85;6.18;;;;;;;21.81;83.20;94467.56;6304186;22;20156;-78
2022/08/13 00:18:06;;;;;;;8.18;6.72;;;;;;;21.81;83.67;94462.28;6304451;22;20547;-78
2022/08/13 00:20:38;;;;;;;8.95;6.65;;;;;;;21.77;83.66;94451.47;6303310;22;20251;-78
2022/08/13 00:23:10;;;;;;;10.73;6.60;;;;;;;21.76;84.05;94452.53;6302493;22;20282;-78
2022/08/13 00:25:38;;;;;;;7.03;6.20;;;;;;;21.98;82.26;94454.56;6303339;22;20164;-77
2022/08/13 00:28:05;;;;;;;8.10;6.90;;;;;;;22.09;81.61;94453.28;6303014;22;20168;-77
2022/08/13 00:30:39;;;;;;;9.32;6.70;;;;;;;22.10;81.28;94449.59;6304069;22;20192;-77
2022/08/13 00:35:54;;;;;;;8.15;6.93;;;;;;;22.02;80.25;94452.88;6302635;22;20168;-77
2022/08/13 00:38:28;;;;;;;8.88;6.80;;;;;;;21.96;79.07;94440.84;6299112;22;20160;-77
2022/08/13 00:40:58;;;;;;;10.30;6.90;;;;;;;21.98;79.43;94452.72;6303390;22;20157;-76
2022/08/13 00:43:33;;;;;;;8.57;6.90;;;;;;;21.99;78.65;94450.84;6302146;22;20168;-77
2022/08/13 00:46:05;;;;;;;11.85;6.75;;;;;;;21.96;78.33;94443.50;6303226;22;20171;-77
2022/08/13 00:48:42;;;;;;;13.02;6.90;;;;;;;22.01;78.56;94452.13;6303430;22;20200;-77
2022/08/13 00:51:16;;;;;;;8.82;6.93;;;;;;;21.96;79.49;94451.44;6303601;22;20172;-78
2022/08/13 00:53:43;;;;;;;11.48;6.63;;;;;;;21.93;79.64;94444.09;6303379;22;20211;-77
2022/08/13 00:56:11;;;;;;;7.57;6.70;;;;;;;21.94;78.63;94443.78;6303722;22;20172;-78
2022/08/13 00:58:41;;;;;;;7.78;6.70;;;;;;;21.88;78.45;94433.56;6303317;22;20171;-78
2022/08/13 01:01:11;;;;;;;10.63;7.20;;;;;;;21.94;80.31;94437.69;6303069;22;20564;-77
2022/08/13 01:03:39;;;;;;;14.10;6.78;;;;;;;21.98;80.51;94439.47;6302409;22;20275;-77
2022/08/13 01:06:09;;;;;;;16.27;7.47;;;;;;;22.06;81.30;94451.22;6303311;22;20700;-78
2022/08/13 01:08:40;;;;;;;8.95;6.80;;;;;;;22.03;80.61;94439.38;6302694;22;20198;-78
2022/08/13 01:11:09;;;;;;;8.30;6.97;;;;;;;22.03;80.46;94441.22;6303412;22;20176;-78
2022/08/13 01:13:38;;;;;;;11.50;7.47;;;;;;;21.96;81.06;94438.22;6303377;22;20168;-78
2022/08/13 01:16:08;;;;;;;12.50;7.90;;;;;;;21.93;81.14;94436.91;6303277;22;20519;-78
2022/08/13 01:18:36;;;;;;;13.63;8.15;;;;;;;21.89;82.21;94435.16;6303582;22;20226;-78
2022/08/13 01:21:10;;;;;;;14.60;9.02;;;;;;;21.81;84.05;94441.88;6303136;22;20645;-79
2022/08/13 01:23:44;;;;;;;11.80;8.10;;;;;;;21.77;84.58;94442.75;6302430;22;20207;-78
2022/08/13 01:26:12;;;;;;;9.63;8.00;;;;;;;21.75;85.09;94442.28;6303895;22;20163;-78
2022/08/13 01:28:39;;;;;;;10.63;7.40;;;;;;;21.72;84.75;94434.91;6303542;22;20164;-77
2022/08/13 01:31:07;;;;;;;10.20;7.68;;;;;;;21.73;83.95;94436.50;6303163;22;20230;-76
2022/08/13 01:33:35;;;;;;;9.80;7.30;;;;;;;21.72;83.35;94435.69;6303160;22;20220;-78
2022/08/13 01:36:04;;;;;;;10.65;7.43;;;;;;;21.72;81.48;94441.00;6303446;22;20172;-78
2022/08/13 01:38:33;;;;;;;10.77;6.82;;;;;;;21.82;83.21;94440.00;6302213;22;20175;-78
2022/08/13 01:41:03;;;;;;;12.48;7.25;;;;;;;21.84;83.89;94437.88;6303492;22;20581;-77
2022/08/13 01:43:31;;;;;;;12.35;7.13;;;;;;;21.89;83.85;94419.28;6302510;22;20243;-77
2022/08/13 01:45:59;;;;;;;8.95;7.03;;;;;;;21.91;83.48;94431.13;6303237;22;20172;-77
2022/08/13 01:51:21;;;;;;;11.55;7.68;;;;;;;21.89;84.18;94425.34;6302932;22;20229;-77
2022/08/13 01:53:49;;;;;;;10.52;7.05;;;;;;;21.85;84.53;94428.84;6303055;22;20259;-77
2022/08/13 01:56:21;;;;;;;12.90;7.05;;;;;;;21.79;84.85;94425.50;6303200;22;20208;-78
2022/08/13 01:58:50;;;;;;;11.95;7.88;;;;;;;21.72;85.32;94422.47;6303251;22;20160;-78
2022/08/13 02:01:18;;;;;;;9.57;7.15;;;;;;;21.69;85.39;94420.41;6303325;22;20176;-77
2022/08/13 02:03:47;;;;;;;11.38;7.65;;;;;;;21.54;85.36;94407.44;6302711;22;20225;-77
2022/08/13 02:06:14;;;;;;;10.68;7.13;;;;;;;21.52;85.56;94419.41;6303192;22;20168;-78
2022/08/13 02:08:41;;;;;;;12.63;7.10;;;;;;;21.47;85.46;94405.19;6303659;22;20165;-77
2022/08/13 02:11:08;;;;;;;10.07;6.80;;;;;;;21.50;85.60;94411.75;6302686;22;20199;-76
2022/08/13 02:13:37;;;;;;;12.13;7.10;;;;;;;21.44;86.49;94418.22;6302811;22;20172;-76
2022/08/13 02:16:04;;;;;;;10.02;6.72;;;;;;;21.42;86.61;94410.56;6303369;22;20165;-76
2022/08/13 02:18:32;;;;;;;11.18;7.32;;;;;;;21.36;86.92;94409.06;6302857;22;20172;-76
2022/08/13 02:21:01;;;;;;;10.85;7.38;;;;;;;21.39;87.64;94415.66;6303949;22;20167;-76
2022/08/13 02:23:31;;;;;;;10.48;7.03;;;;;;;21.36;87.58;94411.72;6303093;22;20200;-76
2022/08/13 02:25:59;;;;;;;10.68;7.10;;;;;;;21.45;86.71;94409.19;6303926;22;20245;-76
2022/08/13 02:28:26;;;;;;;16.67;7.72;;;;;;;21.53;86.22;94415.69;6304117;22;20227;-77
2022/08/13 02:30:57;;;;;;;9.10;6.82;;;;;;;21.52;86.42;94419.41;6304458;22;20509;-77
2022/08/13 02:33:24;;;;;;;9.15;7.20;;;;;;;21.53;86.98;94410.41;6303680;22;20214;-78
2022/08/13 02:35:51;;;;;;;10.20;7.07;;;;;;;21.56;86.37;94420.41;6304222;22;20522;-77
2022/08/13 02:38:18;;;;;;;9.73;6.78;;;;;;;21.54;85.54;94410.09;6303667;22;20164;-77
2022/08/13 02:43:31;;;;;;;8.82;6.70;;;;;;;21.52;85.35;94419.41;6304076;22;20155;-78
2022/08/13 02:46:01;;;;;;;7.45;6.65;;;;;;;21.50;84.69;94409.09;6304097;22;20171;-78
2022/08/13 02:48:29;;;;;;;10.13;6.38;;;;;;;21.49;84.29;94413.63;6304208;22;20204;-77
2022/08/13 02:50:58;;;;;;;8.77;6.93;;;;;;;21.49;84.78;94418.13;6303986;22;20243;-78
2022/08/13 02:53:26;;;;;;;9.00;7.03;;;;;;;21.49;84.44;94416.28;6303093;22;20175;-78
2022/08/13 02:55:52;;;;;;;8.13;6.85;;;;;;;21.44;84.82;94416.34;6305049;22;20179;-77
2022/08/13 02:58:20;;;;;;;7.50;6.53;;;;;;;21.41;84.33;94419.56;6305485;22;20164;-77
2022/08/13 03:00:49;;;;;;;7.80;6.68;;;;;;;21.22;85.02;94412.75;6305754;22;20187;-77
2022/08/13 03:03:18;;;;;;;8.80;6.40;;;;;;;21.39;83.91;94413.00;6305794;22;20168;-78
2022/08/13 03:05:45;;;;;;;8.02;6.35;;;;;;;21.50;82.40;94404.59;6305182;22;20164;-77
2022/08/13 03:08:13;;;;;;;8.77;6.43;;;;;;;21.49;82.58;94410.19;6304979;22;20168;-77
2022/08/13 03:10:41;;;;;;;7.50;6.30;;;;;;;21.35;82.55;94404.88;6305757;22;20222;-76
2022/08/13 03:13:17;;;;;;;8.30;6.57;;;;;;;21.35;82.65;94414.69;6305804;22;20203;-77
2022/08/13 03:15:45;;;;;;;9.23;6.57;;;;;;;21.28;83.17;94425.63;6305399;22;20166;-76
2022/08/13 03:18:12;;;;;;;9.63;6.82;;;;;;;21.22;83.60;94424.13;6305348;22;20176;-76
2022/08/13 03:20:44;;;;;;;10.63;6.40;;;;;;;21.20;84.19;94418.34;6304439;22;20198;-77
2022/08/13 03:23:11;;;;;;;8.68;6.57;;;;;;;21.11;85.05;94419.28;6304655;22;20278;-77
2022/08/13 03:25:39;;;;;;;8.38;6.47;;;;;;;21.09;85.02;94419.59;6304512;22;20176;-77
2022/08/13 03:28:07;;;;;;;7.57;6.30;;;;;;;21.10;84.99;94421.16;6304706;22;20168;-76
2022/08/13 03:30:35;;;;;;;9.27;6.68;;;;;;;21.11;84.79;94422.72;6304678;22;20172;-77
2022/08/13 03:33:04;;;;;;;9.30;6.20;;;;;;;21.11;85.11;94427.22;6304307;22;20192;-78
2022/08/13 03:35:31;;;;;;;7.75;6.88;;;;;;;21.05;85.37;94425.69;6304676;22;20168;-78
2022/08/13 03:38:01;;;;;;;7.78;6.60;;;;;;;20.97;85.24;94427.16;6304373;22;20505;-78
2022/08/13 03:41:00;;;;;;;7.22;6.35;;;;;;;20.97;85.42;94427.16;6304526;22;20164;-78
2022/08/13 03:43:17;;;;;;;10.15;6.97;;;;;;;21.01;84.93;94420.19;6303810;22;20247;-78
2022/08/13 03:45:44;;;;;;;12.90;7.00;;;;;;;21.06;85.06;94424.63;6304443;22;20187;-78
2022/08/13 03:48:13;;;;;;;13.48;6.97;;;;;;;21.08;85.05;94425.16;6303845;22;20510;-79
2022/08/13 03:50:40;;;;;;;12.25;7.57;;;;;;;21.12;84.81;94424.31;6304176;22;20658;-79
2022/08/13 03:53:09;;;;;;;9.23;7.47;;;;;;;21.11;84.65;94432.50;6303537;22;20199;-79
2022/08/13 03:55:37;;;;;;;13.75;7.40;;;;;;;21.11;84.90;94435.94;6304028;22;20169;-78
2022/08/13 03:58:06;;;;;;;13.07;7.57;;;;;;;21.08;84.91;94430.44;6303881;22;20164;-78
2022/08/13 04:00:34;;;;;;;8.75;7.57;;;;;;;21.10;85.13;94436.22;6304023;22;20169;-78
2022/08/13 04:03:02;;;;;;;15.52;7.97;;;;;;;21.10;85.23;94430.94;6303951;22;20192;-78
2022/08/13 04:05:30;;;;;;;17.30;8.02;;;;;;;20.95;85.87;94437.22;6303612;22;20232;-77
2022/08/13 04:07:57;;;;;;;10.32;7.88;;;;;;;20.96;85.98;94433.50;6303154;22;20187;-79
2022/08/13 04:10:26;;;;;;;12.45;7.35;;;;;;;21.01;85.74;94430.00;6304180;22;20165;-78
2022/08/13 04:12:52;;;;;;;9.40;7.70;;;;;;;21.06;85.15;94428.06;6304114;22;20191;-79
2022/08/13 04:15:19;;;;;;;11.15;7.05;;;;;;;21.05;86.05;94429.13;6303429;22;20167;-77
2022/08/13 04:17:46;;;;;;;14.07;7.75;;;;;;;21.03;86.67;94435.78;6303929;22;20187;-79
2022/08/13 04:20:13;;;;;;;12.57;7.57;;;;;;;21.10;86.37;94434.38;6304036;22;20650;-78
2022/08/13 04:22:40;;;;;;;16.15;7.57;;;;;;;21.08;86.25;94436.53;6303176;22;20194;-79
2022/08/13 04:25:08;;;;;;;10.45;7.93;;;;;;;21.14;86.18;94430.09;6303315;22;20491;-78
2022/08/13 04:27:37;;;;;;;11.98;8.13;;;;;;;21.20;85.45;94433.44;6303686;22;20168;-78
2022/08/13 04:30:06;;;;;;;13.50;8.10;;;;;;;21.22;85.38;94436.56;6303735;22;20168;-78
2022/08/13 04:32:41;;;;;;;11.07;7.97;;;;;;;21.15;85.48;94428.22;6303887;22;20218;-75
2022/08/13 04:35:09;;;;;;;11.18;7.95;;;;;;;20.93;86.53;94431.44;6303957;22;20175;-74
2022/08/13 04:37:37;;;;;;;14.15;8.27;;;;;;;20.74;87.38;94428.81;6302674;22;20326;-75
2022/08/13 04:40:06;;;;;;;12.98;8.25;;;;;;;20.69;87.99;94430.75;6303444;22;20192;-75
2022/08/13 04:42:46;;;;;;;11.45;8.00;;;;;;;20.73;88.47;94429.09;6303825;22;20559;-76
2022/08/13 04:45:14;;;;;;;11.68;8.40;;;;;;;20.61;88.85;94428.72;6303358;22;20160;-75
2022/08/13 04:47:42;;;;;;;12.27;8.57;;;;;;;20.59;89.13;94433.50;6302470;22;20190;-76
2022/08/13 04:50:10;;;;;;;12.57;8.65;;;;;;;20.56;89.27;94429.59;6303237;22;20172;-73
2022/08/13 04:52:38;;;;;;;10.23;8.45;;;;;;;20.83;88.78;94429.75;6302845;22;20893;-74
2022/08/13 04:55:06;;;;;;;12.68;9.27;;;;;;;21.13;87.50;94425.84;6302882;22;20207;-74
2022/08/13 04:57:33;;;;;;;15.73;7.95;;;;;;;21.19;86.86;94424.72;6302875;22;20502;-73
2022/08/13 05:00:04;;;;;;;11.77;7.72;;;;;;;21.47;85.25;94436.16;6303700;22;20172;-74
2022/08/13 05:02:30;;;;;;;10.15;8.07;;;;;;;21.64;84.43;94430.31;6304070;22;20167;-73
2022/08/13 05:04:58;;;;;;;11.65;8.27;;;;;;;21.61;84.77;94436.97;6304191;22;20252;-74
2022/08/13 05:07:26;;;;;;;14.05;9.15;;;;;;;21.54;85.01;94433.13;6303827;22;20247;-74
2022/08/13 05:09:54;;;;;;;11.25;8.30;;;;;;;21.52;84.33;94435.28;6304169;22;20168;-73
2022/08/13 05:12:21;;;;;;;11.93;8.52;;;;;;;21.44;84.84;94434.09;6304290;22;20219;-73
2022/08/13 05:14:48;;;;;;;9.35;7.65;;;;;;;21.40;84.60;94430.44;6304063;22;20237;-72
2022/08/13 05:17:16;;;;;;;9.23;7.22;;;;;;;21.41;84.72;94430.13;6303958;22;20229;-73
2022/08/13 05:19:45;;;;;;;8.82;7.35;;;;;;;21.40;84.92;94428.59;6303646;22;20172;-73
2022/08/13 05:22:12;;;;;;;10.50;7.22;;;;;;;21.33;84.72;94436.09;6303305;22;20192;-74
2022/08/13 05:24:40;;;;;;;9.82;7.47;;;;;;;21.59;84.11;94428.50;6303847;22;20171;-74
2022/08/13 05:27:09;;;;;;;11.70;8.32;;;;;;;21.84;83.20;94437.88;6304490;22;20237;-73
2022/08/13 05:29:37;;;;;;;13.32;8.57;;;;;;;21.82;83.43;94432.06;6303654;22;20165;-72
2022/08/13 05:32:05;;;;;;;14.82;9.05;;;;;;;21.73;84.13;94431.97;6304251;22;20222;-73
2022/08/13 05:34:33;;;;;;;11.82;9.13;;;;;;;21.33;86.64;94438.75;6303592;22;20168;-73
2022/08/13 05:37:00;;;;;;;11.55;9.10;;;;;;;20.98;89.70;94425.31;6303965;22;20179;-74
2022/08/13 05:39:27;;;;;;;22.17;9.07;;;;;;;20.77;90.89;94430.09;6303155;22;20172;-74
2022/08/13 05:41:54;;;;;;;10.45;8.77;;;;;;;20.58;91.69;94427.44;6303417;22;20646;-74
2022/08/13 05:44:22;;;;;;;11.73;8.50;;;;;;;20.66;92.30;94429.47;6303525;22;20179;-74
2022/08/13 05:46:49;;;;;;;11.55;8.25;;;;;;;20.73;91.99;94429.09;6303175;22;20171;-73
2022/08/13 05:49:16;;;;;;;13.15;8.60;;;;;;;20.90;91.03;94432.78;6302964;22;20623;-74
2022/08/13 05:51:44;;;;;;;9.63;8.18;;;;;;;21.06;89.26;94435.22;6302779;22;20179;-75
2022/08/13 05:54:23;;;;;;;11.68;8.13;;;;;;;20.77;91.21;94438.81;6302915;22;20171;-74
2022/08/13 05:57:03;;;;;;;11.48;8.40;;;;;;;20.58;92.72;94437.22;6306031;22;20603;-74
2022/08/13 06:05:09;;;;;;;13.15;7.47;;;;;;;20.79;91.44;94443.78;6178623;23;20186;-80
2022/08/13 06:07:41;;;;;;;10.32;7.80;;;;;;;20.81;90.24;94439.00;6273596;22;20175;-80
2022/08/13 06:10:09;;;;;;;11.32;7.90;;;;;;;20.75;90.46;94440.94;6304127;22;20202;-83
2022/08/13 06:12:38;;;;;;;10.23;8.30;;;;;;;20.63;91.31;94434.53;6303345;22;20188;-83
2022/08/13 06:15:06;;;;;;;8.70;7.68;;;;;;;20.59;91.64;94441.44;6302773;22;20564;-89
2022/08/13 06:17:34;;;;;;;12.73;9.10;;;;;;;20.63;90.97;94435.31;6303733;22;20168;-80
2022/08/13 06:20:04;;;;;;;10.55;8.77;;;;;;;20.68;89.96;94437.88;6303546;22;20168;-88
2022/08/13 06:22:34;;;;;;;10.48;8.60;;;;;;;20.72;90.31;94435.47;6303228;22;20246;-79
2022/08/13 06:25:06;;;;;;;12.73;9.77;;;;;;;20.81;90.63;94439.78;6304049;22;20558;-80
2022/08/13 06:27:33;;;;;;;12.90;8.88;;;;;;;20.89;90.13;94431.22;6303935;22;20234;-81
2022/08/13 06:30:01;;;;;;;16.80;9.25;;;;;;;20.92;90.39;94443.84;6304333;22;20677;-80
2022/08/13 06:32:32;;;;;;;12.82;8.85;;;;;;;21.11;90.06;94432.50;6305407;22;20191;-81
2022/08/13 06:34:59;;;;;;;12.93;9.20;;;;;;;21.46;89.19;94442.50;6305652;22;20604;-81
2022/08/13 06:37:28;;;;;;;14.88;8.73;;;;;;;21.60;87.89;94437.25;6306234;22;20226;-77
2022/08/13 06:39:57;;;;;;;11.07;9.18;;;;;;;21.59;86.71;94435.69;6304338;22;20179;-79
2022/08/13 06:42:28;;;;;;;15.80;8.88;;;;;;;21.53;87.16;94437.63;6304329;22;20201;-78
2022/08/13 06:44:55;;;;;;;13.65;8.57;;;;;;;21.58;87.85;94437.53;6304617;22;20267;-76
2022/08/13 06:47:25;;;;;;;13.02;8.48;;;;;;;21.64;88.80;94432.94;6304120;22;20195;-76
2022/08/13 06:49:53;;;;;;;10.68;8.20;;;;;;;21.79;87.76;94435.31;6304433;22;20153;-77
2022/08/13 06:52:20;;;;;;;11.27;8.48;;;;;;;21.92;87.05;94442.50;6304742;22;20246;-76
2022/08/13 06:54:48;;;;;;;14.02;8.50;;;;;;;21.99;86.13;94434.97;6305188;22;20635;-78
2022/08/13 06:57:15;;;;;;;13.32;8.20;;;;;;;22.05;85.92;94442.50;6304847;22;20611;-79
2022/08/13 06:59:46;;;;;;;10.70;8.27;;;;;;;22.16;85.43;94437.03;6305275;22;20499;-82
2022/08/13 07:02:18;;;;;;;11.55;8.38;;;;;;;22.19;84.96;94434.56;6305436;22;20163;-82
2022/08/13 07:04:48;;;;;;;11.38;8.30;;;;;;;22.14;85.82;94439.94;6305596;22;20156;-83
2022/08/13 07:07:17;;;;;;;13.15;8.25;;;;;;;22.11;86.36;94432.59;6305437;22;20164;-83
2022/08/13 07:09:44;;;;;;;11.88;8.65;;;;;;;22.35;84.54;94437.69;6305434;22;20614;-79
2022/08/13 07:12:13;;;;;;;15.82;9.45;;;;;;;22.47;83.64;94440.63;6305752;22;20168;-77
2022/08/13 07:14:44;;;;;;;16.17;9.18;;;;;;;22.58;83.02;94445.41;6305323;22;20179;-76
2022/08/13 07:17:11;;;;;;;11.95;8.73;;;;;;;22.65;82.17;94444.25;6305615;22;20210;-76
2022/08/13 07:19:38;;;;;;;16.00;8.60;;;;;;;22.76;82.64;94451.69;6304982;22;20172;-78
2022/08/13 07:22:05;;;;;;;14.38;9.18;;;;;;;22.75;82.42;94449.31;6304946;22;20203;-77
2022/08/13 07:24:32;;;;;;;16.15;8.63;;;;;;;22.78;81.54;94451.38;6304682;22;20164;-77
2022/08/13 07:27:04;;;;;;;15.45;8.63;;;;;;;22.81;81.63;94446.25;6305073;22;20232;-76
2022/08/13 07:29:32;;;;;;;12.38;8.80;;;;;;;22.85;81.22;94446.44;6305576;22;20163;-76
2022/08/13 07:32:03;;;;;;;9.70;8.20;;;;;;;22.84;81.67;94450.19;6305370;22;20164;-76
2022/08/13 07:34:31;;;;;;;12.93;9.02;;;;;;;22.88;81.12;94451.94;6304981;22;20670;-77
2022/08/13 07:36:59;;;;;;;12.73;8.95;;;;;;;22.84;80.78;94450.97;6305050;22;20658;-77
2022/08/13 07:39:26;;;;;;;15.13;9.10;;;;;;;22.89;80.52;94448.19;6304560;22;20175;-75
2022/08/13 07:41:56;;;;;;;19.17;9.52;;;;;;;22.89;80.05;94450.84;6304807;22;20168;-78
2022/08/13 07:44:24;;;;;;;12.65;8.32;;;;;;;22.87;80.16;94455.66;6305707;22;20206;-76
2022/08/13 07:46:52;;;;;;;12.18;9.07;;;;;;;22.86;80.53;94445.34;6304979;22;20180;-76
2022/08/13 07:49:22;;;;;;;14.07;8.55;;;;;;;22.92;80.54;94438.84;6304456;22;20175;-76
2022/08/13 07:51:49;;;;;;;13.38;8.63;;;;;;;23.03;80.49;94448.94;6305395;22;20251;-77
2022/08/13 07:54:16;;;;;;;11.80;9.05;;;;;;;22.97;80.58;94444.81;6305190;22;20199;-77
2022/08/13 07:56:47;;;;;;;15.88;8.77;;;;;;;23.00;81.07;94443.47;6305051;22;20168;-77
2022/08/13 07:59:17;;;;;;;11.65;8.73;;;;;;;22.90;81.18;94433.06;6304787;22;20157;-77
2022/08/13 08:01:46;;;;;;;12.05;8.70;;;;;;;22.97;81.18;94442.16;6304787;22;20528;-77
2022/08/13 08:04:15;;;;;;;14.13;9.23;;;;;;;22.97;81.15;94439.53;6305278;22;20168;-77
2022/08/13 08:06:45;;;;;;;20.02;9.35;;;;;;;22.99;80.98;94447.19;6304829;22;20164;-77
2022/08/13 08:09:17;;;;;;;13.15;8.57;;;;;;;22.99;81.66;94437.38;6305405;22;20164;-78
2022/08/13 08:14:30;;;;;;;12.98;8.02;;;;;;;23.07;80.70;94438.50;6304649;22;20175;-78
2022/08/13 08:16:59;;;;;;;11.68;8.63;;;;;;;23.02;81.25;94443.94;6305473;22;20229;-78
2022/08/13 08:19:27;;;;;;;17.45;8.15;;;;;;;23.03;81.97;94437.56;6304607;22;20175;-75
2022/08/13 08:21:58;;;;;;;12.27;8.68;;;;;;;23.03;81.64;94432.25;6304292;22;20196;-76
2022/08/13 08:24:26;;;;;;;11.40;8.20;;;;;;;23.12;81.15;94428.56;6304000;22;20267;-77
2022/08/13 08:26:55;;;;;;;11.35;8.70;;;;;;;23.11;80.72;94434.19;6303795;22;20168;-77
2022/08/13 08:29:22;;;;;;;11.23;8.25;;;;;;;23.18;81.64;94445.13;6303483;22;20657;-77
2022/08/13 08:31:50;;;;;;;13.50;8.18;;;;;;;23.25;79.62;94431.47;6304165;22;20164;-77
2022/08/13 08:34:18;;;;;;;10.75;7.72;;;;;;;23.29;80.80;94430.53;6303383;22;20360;-77
2022/08/13 08:36:46;;;;;;;12.50;7.75;;;;;;;23.32;80.14;94443.19;6304532;22;20165;-78
2022/08/13 08:44:56;;;;;;;11.65;8.07;;;;;;;23.33;80.88;94428.06;6302692;22;20183;-81
2022/08/13 08:47:29;;;;;;;11.55;8.60;;;;;;;23.35;81.01;94423.28;6303864;22;20172;-81
2022/08/13 08:49:59;;;;;;;10.00;8.50;;;;;;;23.37;81.93;94421.88;6303356;22;20160;-81
2022/08/13 08:53:19;;;;;;;13.63;9.15;;;;;;;23.46;80.47;94432.56;6304194;22;20596;-82
2022/08/13 08:55:16;;;;;;;13.63;9.63;;;;;;;23.40;81.40;94423.16;6302916;22;20495;-81
2022/08/13 08:57:45;;;;;;;10.40;9.30;;;;;;;23.39;80.76;94422.38;6303597;22;20187;-81
2022/08/13 09:00:23;;;;;;;13.18;8.95;;;;;;;23.35;80.66;94423.28;6303925;22;20172;-80
2022/08/13 09:02:56;;;;;;;13.60;9.63;;;;;;;23.33;80.75;94423.56;6303953;22;20164;-81
2022/08/13 09:05:25;;;;;;;9.88;7.68;;;;;;;23.34;80.88;94411.88;6302990;22;20168;-77
2022/08/13 09:07:53;;;;;;;10.98;7.82;;;;;;;23.42;80.28;94427.09;6303661;22;20172;-78
2022/08/13 09:10:23;;;;;;;10.70;8.68;;;;;;;23.37;80.64;94421.09;6303396;22;20168;-77
2022/08/13 09:12:52;;;;;;;10.70;8.63;;;;;;;23.24;81.09;94417.41;6303695;22;20158;-80
2022/08/13 09:15:22;;;;;;;11.43;8.13;;;;;;;23.19;81.26;94414.91;6303405;22;20263;-76
2022/08/13 09:17:50;;;;;;;13.30;8.60;;;;;;;23.15;81.75;94421.88;6303914;22;20175;-77
2022/08/13 09:20:20;;;;;;;11.75;8.45;;;;;;;23.14;81.45;94429.03;6304692;22;20164;-78
2022/08/13 09:22:49;;;;;;;9.57;8.52;;;;;;;23.08;81.38;94424.97;6304057;22;20196;-77
2022/08/13 09:25:18;;;;;;;11.27;8.45;;;;;;;23.03;80.55;94427.72;6303696;22;20893;-78
2022/08/13 09:27:47;;;;;;;13.27;8.70;;;;;;;22.82;82.23;94433.78;6304117;22;20194;-77
2022/08/13 09:30:16;;;;;;;15.85;8.88;;;;;;;22.83;84.09;94430.06;6304363;22;20171;-80
2022/08/13 09:32:45;;;;;;;13.63;8.63;;;;;;;22.87;85.53;94428.38;6304648;22;20165;-79
2022/08/13 09:35:12;;;;;;;12.68;9.85;;;;;;;22.79;89.68;94429.09;6304591;22;20718;-79
2022/08/13 09:37:39;;;;;;;13.18;10.38;;;;;;;22.76;95.37;94432.34;6304134;22;20198;-80
2022/08/13 09:40:07;;;;;;;14.40;9.27;;;;;;;22.57;97.31;94419.97;6304664;22;20164;-80
2022/08/13 09:42:44;;;;;;;16.08;10.00;;;;;;;22.61;100.00;94420.97;6305031;22;20175;-81
2022/08/13 09:45:14;;;;;;;12.63;9.93;;;;;;;22.59;99.49;94417.06;6304796;22;20665;-80
2022/08/13 09:47:41;;;;;;;13.40;10.20;;;;;;;22.65;100.00;94415.09;6304606;22;20168;-81
2022/08/13 09:50:09;;;;;;;14.30;11.10;;;;;;;22.52;100.00;94416.66;6303522;22;20247;-82
2022/08/13 09:52:37;;;;;;;16.75;11.52;;;;;;;22.38;99.74;94414.03;6304678;22;20164;-78
2022/08/13 09:55:04;;;;;;;13.82;10.82;;;;;;;22.31;100.00;94411.00;6304267;22;20192;-78
2022/08/13 09:57:32;;;;;;;15.43;11.35;;;;;;;22.33;100.00;94410.72;6304839;22;20164;-78
2022/08/13 09:59:58;;;;;;;12.30;11.00;;;;;;;22.23;100.00;94408.28;6303526;22;20226;-79
2022/08/13 10:02:27;;;;;;;15.43;11.18;;;;;;;22.21;100.00;94411.22;6304793;22;20171;-78
2022/08/13 10:04:57;;;;;;;14.13;11.57;;;;;;;22.20;100.00;94414.94;6303828;22;20160;-77
2022/08/13 10:07:24;;;;;;;18.25;11.80;;;;;;;22.18;100.00;94416.31;6306342;22;20171;-78
2022/08/13 10:09:51;;;;;;;14.98;11.52;;;;;;;22.20;98.91;94422.88;6306771;22;20262;-78
2022/08/13 10:12:18;;;;;;;18.38;12.55;;;;;;;22.15;100.00;94412.41;6306443;22;20210;-77
2022/08/13 10:14:45;;;;;;;16.65;13.48;;;;;;;22.16;100.00;94411.34;6304262;22;20192;-77
2022/08/13 10:17:12;;;;;;;17.50;12.80;;;;;;;22.13;99.60;94408.50;6305338;22;20164;-77
2022/08/13 10:19:40;;;;;;;15.80;13.60;;;;;;;22.18;98.54;94405.72;6304803;22;20516;-79
2022/08/13 10:22:08;;;;;;;16.95;13.63;;;;;;;22.21;100.00;94408.56;6305787;22;20199;-76
2022/08/13 10:24:35;;;;;;;14.82;12.88;;;;;;;22.19;100.00;94405.44;6306351;22;20619;-79
2022/08/13 10:27:02;;;;;;;18.55;14.00;;;;;;;22.13;100.00;94397.91;6305947;22;20172;-77
2022/08/13 10:29:29;;;;;;;26.42;22.10;;;;;;;21.94;100.00;94403.28;6306636;22;20171;-77
2022/08/13 10:31:56;;;;;;;30.58;25.63;;;;;;;21.96;100.00;94395.84;6306458;22;20168;-78
2022/08/13 10:34:24;;;;;;;25.27;18.33;;;;;;;21.96;100.00;94403.78;6306163;22;20196;-75
2022/08/13 10:36:56;;;;;;;19.60;14.57;;;;;;;21.91;100.00;94394.06;6306706;22;20174;-76
2022/08/13 10:39:23;;;;;;;18.33;15.05;;;;;;;21.78;100.00;94400.13;6305957;22;20162;-77
2022/08/13 10:41:51;;;;;;;16.75;14.50;;;;;;;21.74;100.00;94398.34;6305103;22;20552;-77
2022/08/13 10:44:21;;;;;;;17.33;14.35;;;;;;;21.72;100.00;94392.56;6306283;22;20171;-77
2022/08/13 10:46:48;;;;;;;19.35;16.63;;;;;;;21.72;100.00;94392.56;6305777;22;20176;-77
2022/08/13 10:49:17;;;;;;;25.25;16.83;;;;;;;21.51;100.00;94392.16;6306259;22;20214;-78
2022/08/13 10:51:44;;;;;;;27.42;17.50;;;;;;;21.16;100.00;94390.91;6306187;22;20168;-78
2022/08/13 10:54:21;;;;;;;21.90;15.75;;;;;;;20.95;100.00;94387.78;6306076;22;20227;-77
2022/08/13 10:56:48;;;;;;;22.77;16.45;;;;;;;20.77;100.00;94396.53;6304645;22;20167;-77
2022/08/13 10:59:15;;;;;;;20.80;16.70;;;;;;;20.81;100.00;94383.53;6306027;22;20275;-78
2022/08/13 11:01:42;;;;;;;21.90;15.98;;;;;;;20.83;100.00;94384.81;6300372;22;20164;-77
2022/08/13 11:04:10;;;;;;;22.23;15.38;;;;;;;20.89;100.00;94396.09;6304625;22;20167;-76
2022/08/13 11:06:39;;;;;;;23.30;15.10;;;;;;;20.91;100.00;94394.75;6304902;22;20263;-78
2022/08/13 11:09:08;;;;;;;21.35;14.20;;;;;;;20.99;100.00;94397.78;6303852;22;20160;-78
2022/08/13 11:11:38;;;;;;;19.65;14.77;;;;;;;21.08;100.00;94399.50;6304458;22;20263;-77
2022/08/13 11:14:06;;;;;;;20.80;15.32;;;;;;;21.18;100.00;94398.56;6304421;22;20277;-78
2022/08/13 11:19:25;;;;;;;17.80;13.38;;;;;;;21.16;100.00;94395.41;6304364;22;20156;-76
2022/08/13 11:21:54;;;;;;;18.90;12.63;;;;;;;21.18;100.00;94386.13;6303795;22;20243;-77
2022/08/13 11:24:22;;;;;;;16.67;12.73;;;;;;;21.19;100.00;94387.69;6303804;22;20160;-76
2022/08/13 11:26:52;;;;;;;19.35;13.95;;;;;;;21.22;100.00;94371.25;6304124;22;20175;-77
2022/08/13 11:29:19;;;;;;;22.75;14.48;;;;;;;21.29;100.00;94376.97;6303395;22;20171;-78
2022/08/13 11:31:47;;;;;;;18.65;13.77;;;;;;;21.27;100.00;94373.81;6303219;22;20631;-77
2022/08/13 11:34:15;;;;;;;17.27;13.45;;;;;;;21.26;100.00;94379.41;6304532;22;20184;-76
2022/08/13 11:36:43;;;;;;;28.77;21.00;;;;;;;21.32;100.00;94381.66;6304317;22;20169;-77
2022/08/13 11:39:11;;;;;;;26.23;23.15;;;;;;;21.24;100.00;94381.56;6303838;22;20168;-76
2022/08/13 11:41:38;;;;;;;26.55;22.58;;;;;;;21.29;100.00;94379.59;6303774;22;20160;-76
2022/08/13 11:44:06;;;;;;;23.55;19.73;;;;;;;21.28;100.00;94388.59;6304254;22;20634;-77
2022/08/13 11:46:33;;;;;;;21.10;17.25;;;;;;;21.21;100.00;94387.41;6303519;22;20176;-77
2022/08/13 11:49:00;;;;;;;18.27;15.55;;;;;;;20.97;100.00;94395.44;6304338;22;20168;-77
2022/08/13 11:51:27;;;;;;;19.27;14.43;;;;;;;20.73;100.00;94397.38;6303921;22;20278;-78
2022/08/13 11:53:54;;;;;;;18.27;13.70;;;;;;;20.58;100.00;94397.59;6303571;22;20164;-77
2022/08/13 11:56:21;;;;;;;19.08;11.77;;;;;;;20.49;100.00;94392.19;6304196;22;20171;-80